sensor_id;sensor_type;location;lat;lon;timestamp;pressure;altitude;pressure_sealevel;temperature;humidity
23953;BME280;12163;49.316;6.092;2022-11-15T00:00:47;98912.84;;;12.88;89.37
23953;BME280;12163;49.316;6.092;2022-11-15T00:03:18;98914.78;;;12.96;88.67
23953;BME280;12163;49.316;6.092;2022-11-15T00:05:45;98905.84;;;12.96;88.75
23953;BME280;12163;49.316;6.092;2022-11-15T00:08:12;98910.47;;;12.95;88.32
23953;BME280;12163;49.316;6.092;2022-11-15T00:10:39;98906.19;;;12.94;88.75
23953;BME280;12163;49.316;6.092;2022-11-15T00:13:12;98898.34;;;12.93;88.50
23953;BME280;12163;49.316;6.092;2022-11-15T00:15:40;98899.44;;;12.92;87.85
23953;BME280;12163;49.316;6.092;2022-11-15T00:18:12;98907.41;;;12.88;87.84
23953;BME280;12163;49.316;6.092;2022-11-15T00:20:39;98906.44;;;12.84;88.32
23953;BME280;12163;49.316;6.092;2022-11-15T00:23:06;98909.63;;;12.86;88.09
23953;BME280;12163;49.316;6.092;2022-11-15T00:25:33;98907.41;;;12.88;88.02
23953;BME280;12163;49.316;6.092;2022-11-15T00:28:00;98913.91;;;12.87;87.83
23953;BME280;12163;49.316;6.092;2022-11-15T00:30:27;98912.84;;;12.88;87.93
23953;BME280;12163;49.316;6.092;2022-11-15T00:32:54;98913.63;;;12.89;87.75
23953;BME280;12163;49.316;6.092;2022-11-15T00:35:21;98910.91;;;12.89;88.13
23953;BME280;12163;49.316;6.092;2022-11-15T00:37:48;98911.72;;;12.89;87.53
23953;BME280;12163;49.316;6.092;2022-11-15T00:40:15;98908.50;;;12.87;87.27
23953;BME280;12163;49.316;6.092;2022-11-15T00:42:41;98906.91;;;12.86;87.17
23953;BME280;12163;49.316;6.092;2022-11-15T00:45:09;98910.44;;;12.87;87.56
23953;BME280;12163;49.316;6.092;2022-11-15T00:47:35;98907.72;;;12.87;86.79
23953;BME280;12163;49.316;6.092;2022-11-15T00:50:02;98915.03;;;12.86;87.28
23953;BME280;12163;49.316;6.092;2022-11-15T00:52:29;98911.22;;;12.87;87.15
23953;BME280;12163;49.316;6.092;2022-11-15T00:54:55;98908.84;;;12.86;87.35
23953;BME280;12163;49.316;6.092;2022-11-15T00:57:22;98905.31;;;12.85;87.19
23953;BME280;12163;49.316;6.092;2022-11-15T00:59:48;98913.91;;;12.87;87.27
23953;BME280;12163;49.316;6.092;2022-11-15T01:02:15;98909.00;;;12.89;87.45
23953;BME280;12163;49.316;6.092;2022-11-15T01:04:41;98919.34;;;12.87;87.45
23953;BME280;12163;49.316;6.092;2022-11-15T01:07:08;98904.19;;;12.86;87.62
23953;BME280;12163;49.316;6.092;2022-11-15T01:09:35;98916.63;;;12.87;87.32
23953;BME280;12163;49.316;6.092;2022-11-15T01:12:01;98910.13;;;12.88;87.45
23953;BME280;12163;49.316;6.092;2022-11-15T01:14:28;98919.03;;;12.89;87.22
23953;BME280;12163;49.316;6.092;2022-11-15T01:16:54;98921.25;;;12.87;87.51
23953;BME280;12163;49.316;6.092;2022-11-15T01:19:21;98914.72;;;12.88;87.04
23953;BME280;12163;49.316;6.092;2022-11-15T01:21:51;98920.97;;;12.88;87.45
23953;BME280;12163;49.316;6.092;2022-11-15T01:24:17;98910.72;;;12.85;87.46
23953;BME280;12163;49.316;6.092;2022-11-15T01:26:44;98913.44;;;12.85;87.77
23953;BME280;12163;49.316;6.092;2022-11-15T01:29:10;98901.50;;;12.86;87.60
23953;BME280;12163;49.316;6.092;2022-11-15T01:31:37;98909.63;;;12.86;86.77
23953;BME280;12163;49.316;6.092;2022-11-15T01:34:04;98912.31;;;12.86;87.05
23953;BME280;12163;49.316;6.092;2022-11-15T01:36:31;98903.41;;;12.86;86.92
23953;BME280;12163;49.316;6.092;2022-11-15T01:38:58;98906.44;;;12.84;86.91
23953;BME280;12163;49.316;6.092;2022-11-15T01:41:28;98903.25;;;12.82;86.79
23953;BME280;12163;49.316;6.092;2022-11-15T01:43:57;98896.09;;;12.78;87.00
23953;BME280;12163;49.316;6.092;2022-11-15T01:46:45;98894.31;;;12.73;86.70
23953;BME280;12163;49.316;6.092;2022-11-15T01:49:18;98907.66;;;12.70;86.43
23953;BME280;12163;49.316;6.092;2022-11-15T01:51:46;98908.00;;;12.68;86.33
23953;BME280;12163;49.316;6.092;2022-11-15T01:54:15;98905.41;;;12.63;87.06
23953;BME280;12163;49.316;6.092;2022-11-15T01:56:52;98903.03;;;12.62;86.90
23953;BME280;12163;49.316;6.092;2022-11-15T01:59:19;98904.63;;;12.63;87.14
23953;BME280;12163;49.316;6.092;2022-11-15T02:01:46;98903.81;;;12.62;86.58
23953;BME280;12163;49.316;6.092;2022-11-15T02:04:17;98898.41;;;12.62;87.23
23953;BME280;12163;49.316;6.092;2022-11-15T02:06:45;98894.88;;;12.53;86.77
23953;BME280;12163;49.316;6.092;2022-11-15T02:09:13;98897.78;;;12.57;86.60
23953;BME280;12163;49.316;6.092;2022-11-15T02:11:40;98890.75;;;12.56;86.88
23953;BME280;12163;49.316;6.092;2022-11-15T02:14:08;98896.47;;;12.54;87.00
23953;BME280;12163;49.316;6.092;2022-11-15T02:25:01;98884.34;;;12.52;86.21
23953;BME280;12163;49.316;6.092;2022-11-15T02:30:21;98890.09;;;12.50;86.45
23953;BME280;12163;49.316;6.092;2022-11-15T02:32:52;98895.03;;;12.48;86.24
23953;BME280;12163;49.316;6.092;2022-11-15T02:35:34;98896.78;;;12.44;86.53
23953;BME280;12163;49.316;6.092;2022-11-15T02:41:22;98883.97;;;12.36;86.95
23953;BME280;12163;49.316;6.092;2022-11-15T02:43:30;98871.91;;;12.34;87.33
23953;BME280;12163;49.316;6.092;2022-11-15T02:46:43;98881.25;;;12.28;87.06
23953;BME280;12163;49.316;6.092;2022-11-15T02:49:32;98876.31;;;12.21;86.77
23953;BME280;12163;49.316;6.092;2022-11-15T02:52:00;98862.09;;;12.16;87.27
23953;BME280;12163;49.316;6.092;2022-11-15T02:54:30;98863.03;;;12.11;87.48
23953;BME280;12163;49.316;6.092;2022-11-15T02:57:06;98857.78;;;12.06;87.02
23953;BME280;12163;49.316;6.092;2022-11-15T03:16:11;98846.75;;;11.51;87.52
23953;BME280;12163;49.316;6.092;2022-11-15T03:18:49;98856.63;;;11.33;87.76
23953;BME280;12163;49.316;6.092;2022-11-15T03:21:19;98861.28;;;11.19;87.63
23953;BME280;12163;49.316;6.092;2022-11-15T03:23:48;98858.00;;;11.09;88.10
23953;BME280;12163;49.316;6.092;2022-11-15T03:26:19;98862.84;;;10.98;87.58
23953;BME280;12163;49.316;6.092;2022-11-15T03:28:55;98863.88;;;10.89;88.10
23953;BME280;12163;49.316;6.092;2022-11-15T03:31:27;98849.38;;;10.85;88.68
23953;BME280;12163;49.316;6.092;2022-11-15T03:34:38;98851.59;;;10.83;89.45
23953;BME280;12163;49.316;6.092;2022-11-15T03:37:07;98856.00;;;10.79;89.42
23953;BME280;12163;49.316;6.092;2022-11-15T03:39:34;98855.91;;;10.70;89.04
23953;BME280;12163;49.316;6.092;2022-11-15T03:49:43;98855.16;;;10.56;90.41
23953;BME280;12163;49.316;6.092;2022-11-15T03:52:10;98849.16;;;10.46;89.81
23953;BME280;12163;49.316;6.092;2022-11-15T03:54:47;98845.34;;;10.47;90.38
23953;BME280;12163;49.316;6.092;2022-11-15T03:57:14;98851.75;;;10.51;90.73
23953;BME280;12163;49.316;6.092;2022-11-15T03:59:40;98849.16;;;10.46;90.67
23953;BME280;12163;49.316;6.092;2022-11-15T04:02:07;98842.16;;;10.45;90.47
23953;BME280;12163;49.316;6.092;2022-11-15T04:04:34;98842.16;;;10.45;90.87
23953;BME280;12163;49.316;6.092;2022-11-15T04:07:00;98846.53;;;10.41;90.57
23953;BME280;12163;49.316;6.092;2022-11-15T04:09:27;98843.34;;;10.39;91.13
23953;BME280;12163;49.316;6.092;2022-11-15T04:11:53;98850.34;;;10.40;91.03
23953;BME280;12163;49.316;6.092;2022-11-15T04:14:20;98851.44;;;10.39;90.95
23953;BME280;12163;49.316;6.092;2022-11-15T04:16:46;98850.94;;;10.37;91.49
23953;BME280;12163;49.316;6.092;2022-11-15T04:19:13;98846.97;;;10.34;91.12
23953;BME280;12163;49.316;6.092;2022-11-15T04:22:08;98845.75;;;10.27;91.06
23953;BME280;12163;49.316;6.092;2022-11-15T04:24:53;98847.16;;;10.24;91.25
23953;BME280;12163;49.316;6.092;2022-11-15T04:27:20;98851.53;;;10.20;91.10
23953;BME280;12163;49.316;6.092;2022-11-15T04:29:46;98848.16;;;10.15;91.50
23953;BME280;12163;49.316;6.092;2022-11-15T04:32:13;98854.53;;;10.19;91.83
23953;BME280;12163;49.316;6.092;2022-11-15T04:34:39;98849.84;;;10.24;92.11
23953;BME280;12163;49.316;6.092;2022-11-15T04:37:06;98865.63;;;10.31;92.25
23953;BME280;12163;49.316;6.092;2022-11-15T04:39:40;98853.16;;;10.35;91.73
23953;BME280;12163;49.316;6.092;2022-11-15T04:42:07;98855.72;;;10.40;91.54
23953;BME280;12163;49.316;6.092;2022-11-15T04:44:34;98858.94;;;10.42;91.79
23953;BME280;12163;49.316;6.092;2022-11-15T04:47:02;98857.31;;;10.41;91.54
23953;BME280;12163;49.316;6.092;2022-11-15T04:49:28;98852.44;;;10.43;91.31
23953;BME280;12163;49.316;6.092;2022-11-15T04:51:55;98852.34;;;10.48;89.89
23953;BME280;12163;49.316;6.092;2022-11-15T04:54:22;98855.03;;;10.48;89.49
23953;BME280;12163;49.316;6.092;2022-11-15T04:56:48;98857.75;;;10.48;89.27
23953;BME280;12163;49.316;6.092;2022-11-15T04:59:15;98855.53;;;10.50;89.09
23953;BME280;12163;49.316;6.092;2022-11-15T05:01:41;98861.94;;;10.54;89.24
23953;BME280;12163;49.316;6.092;2022-11-15T05:04:10;98863.53;;;10.55;88.13
23953;BME280;12163;49.316;6.092;2022-11-15T05:06:47;98853.72;;;10.59;88.20
23953;BME280;12163;49.316;6.092;2022-11-15T05:09:14;98860.22;;;10.58;87.27
23953;BME280;12163;49.316;6.092;2022-11-15T05:11:41;98858.84;;;10.60;86.98
23953;BME280;12163;49.316;6.092;2022-11-15T05:14:08;98851.53;;;10.61;86.53
23953;BME280;12163;49.316;6.092;2022-11-15T05:16:35;98839.13;;;10.60;86.60
23953;BME280;12163;49.316;6.092;2022-11-15T05:19:02;98839.75;;;10.57;86.08
23953;BME280;12163;49.316;6.092;2022-11-15T05:21:29;98850.31;;;10.53;85.99
23953;BME280;12163;49.316;6.092;2022-11-15T05:23:56;98845.34;;;10.47;85.78
23953;BME280;12163;49.316;6.092;2022-11-15T05:26:23;98848.34;;;10.45;86.06
23953;BME280;12163;49.316;6.092;2022-11-15T05:28:57;98839.88;;;10.38;86.22
23953;BME280;12163;49.316;6.092;2022-11-15T05:31:24;98836.06;;;10.26;85.94
23953;BME280;12163;49.316;6.092;2022-11-15T05:33:53;98844.94;;;10.13;85.63
23953;BME280;12163;49.316;6.092;2022-11-15T05:36:38;98846.09;;;9.94;85.86
23953;BME280;12163;49.316;6.092;2022-11-15T05:39:06;98840.09;;;9.83;85.91
23953;BME280;12163;49.316;6.092;2022-11-15T05:41:42;98846.25;;;9.70;86.32
23953;BME280;12163;49.316;6.092;2022-11-15T05:44:13;98844.25;;;9.62;86.31
23953;BME280;12163;49.316;6.092;2022-11-15T05:46:42;98846.00;;;9.53;86.55
23953;BME280;12163;49.316;6.092;2022-11-15T05:49:11;98841.22;;;9.50;86.94
23953;BME280;12163;49.316;6.092;2022-11-15T05:51:41;98838.81;;;9.49;87.33
23953;BME280;12163;49.316;6.092;2022-11-15T05:54:08;98839.03;;;9.52;87.36
23953;BME280;12163;49.316;6.092;2022-11-15T05:56:35;98840.84;;;9.57;87.79
23953;BME280;12163;49.316;6.092;2022-11-15T05:59:02;98842.59;;;9.93;88.92
23953;BME280;12163;49.316;6.092;2022-11-15T06:01:29;98834.66;;;10.42;89.19
23953;BME280;12163;49.316;6.092;2022-11-15T06:03:56;98847.00;;;10.83;87.74
23953;BME280;12163;49.316;6.092;2022-11-15T06:06:22;98847.13;;;11.14;87.79
23953;BME280;12163;49.316;6.092;2022-11-15T06:08:49;98844.91;;;11.38;87.31
23953;BME280;12163;49.316;6.092;2022-11-15T06:11:15;98834.28;;;11.63;86.87
23953;BME280;12163;49.316;6.092;2022-11-15T06:13:42;98847.47;;;11.86;86.11
23953;BME280;12163;49.316;6.092;2022-11-15T06:16:08;98830.38;;;11.99;84.78
23953;BME280;12163;49.316;6.092;2022-11-15T06:18:36;98834.69;;;12.09;83.95
23953;BME280;12163;49.316;6.092;2022-11-15T06:21:03;98826.47;;;12.14;83.58
23953;BME280;12163;49.316;6.092;2022-11-15T06:23:34;98819.63;;;12.16;82.39
23953;BME280;12163;49.316;6.092;2022-11-15T06:26:02;98823.28;;;12.20;82.93
23953;BME280;12163;49.316;6.092;2022-11-15T06:28:30;98819.34;;;12.26;82.22
23953;BME280;12163;49.316;6.092;2022-11-15T06:31:05;98815.38;;;12.32;81.62
23953;BME280;12163;49.316;6.092;2022-11-15T06:33:32;98822.25;;;12.38;81.26
23953;BME280;12163;49.316;6.092;2022-11-15T06:36:01;98821.13;;;12.39;80.20
23953;BME280;12163;49.316;6.092;2022-11-15T06:38:28;98826.63;;;12.17;78.43
23953;BME280;12163;49.316;6.092;2022-11-15T06:40:54;98828.69;;;11.81;78.94
23953;BME280;12163;49.316;6.092;2022-11-15T06:43:21;98848.31;;;11.43;79.49
23953;BME280;12163;49.316;6.092;2022-11-15T06:45:48;98848.22;;;11.13;79.28
23953;BME280;12163;49.316;6.092;2022-11-15T06:48:14;98848.88;;;10.83;80.93
23953;BME280;12163;49.316;6.092;2022-11-15T06:50:41;98851.84;;;10.59;81.37
23953;BME280;12163;49.316;6.092;2022-11-15T06:53:08;98844.34;;;10.43;82.23
23953;BME280;12163;49.316;6.092;2022-11-15T06:55:35;98840.56;;;10.30;82.73
23953;BME280;12163;49.316;6.092;2022-11-15T06:58:01;98841.25;;;10.22;83.72
23953;BME280;12163;49.316;6.092;2022-11-15T07:00:28;98839.44;;;10.18;83.94
23953;BME280;12163;49.316;6.092;2022-11-15T07:02:55;98837.84;;;10.17;84.35
23953;BME280;12163;49.316;6.092;2022-11-15T07:05:21;98845.94;;;10.17;84.71
23953;BME280;12163;49.316;6.092;2022-11-15T07:07:53;98839.78;;;10.16;85.00
23953;BME280;12163;49.316;6.092;2022-11-15T07:10:20;98841.75;;;10.11;84.83
23953;BME280;12163;49.316;6.092;2022-11-15T07:12:53;98847.53;;;10.18;85.66
23953;BME280;12163;49.316;6.092;2022-11-15T07:15:23;98845.34;;;10.20;85.61
23953;BME280;12163;49.316;6.092;2022-11-15T07:17:50;98842.34;;;10.21;86.13
23953;BME280;12163;49.316;6.092;2022-11-15T07:20:17;98840.97;;;10.24;86.05
23953;BME280;12163;49.316;6.092;2022-11-15T07:22:44;98849.25;;;10.27;86.66
23953;BME280;12163;49.316;6.092;2022-11-15T07:25:11;98845.16;;;10.30;86.04
23953;BME280;12163;49.316;6.092;2022-11-15T07:27:38;98844.56;;;10.33;86.48
23953;BME280;12163;49.316;6.092;2022-11-15T07:30:05;98844.75;;;10.36;87.04
23953;BME280;12163;49.316;6.092;2022-11-15T07:32:32;98850.34;;;10.40;86.85
23953;BME280;12163;49.316;6.092;2022-11-15T07:34:58;98845.16;;;10.43;86.92
23953;BME280;12163;49.316;6.092;2022-11-15T07:37:25;98844.53;;;10.46;86.78
23953;BME280;12163;49.316;6.092;2022-11-15T07:39:51;98847.94;;;10.52;86.79
23953;BME280;12163;49.316;6.092;2022-11-15T07:42:18;98839.53;;;10.53;87.06
23953;BME280;12163;49.316;6.092;2022-11-15T07:45:04;98839.75;;;10.57;87.10
23953;BME280;12163;49.316;6.092;2022-11-15T07:47:31;98836.94;;;10.62;86.91
23953;BME280;12163;49.316;6.092;2022-11-15T07:49:57;98840.94;;;10.64;87.00
23953;BME280;12163;49.316;6.092;2022-11-15T07:52:24;98839.03;;;10.65;86.80
23953;BME280;12163;49.316;6.092;2022-11-15T07:54:51;98838.22;;;10.64;86.07
23953;BME280;12163;49.316;6.092;2022-11-15T07:57:17;98839.03;;;10.65;86.56
23953;BME280;12163;49.316;6.092;2022-11-15T07:59:44;98837.63;;;10.67;86.64
23953;BME280;12163;49.316;6.092;2022-11-15T08:02:10;98842.13;;;10.72;86.90
23953;BME280;12163;49.316;6.092;2022-11-15T08:04:38;98844.50;;;10.73;86.08
23953;BME280;12163;49.316;6.092;2022-11-15T08:07:04;98843.72;;;10.73;86.78
23953;BME280;12163;49.316;6.092;2022-11-15T08:09:31;98831.81;;;10.74;86.11
23953;BME280;12163;49.316;6.092;2022-11-15T08:11:58;98828.03;;;10.75;86.28
23953;BME280;12163;49.316;6.092;2022-11-15T08:14:24;98823.72;;;10.74;86.63
23953;BME280;12163;49.316;6.092;2022-11-15T08:16:51;98829.81;;;10.79;86.38
23953;BME280;12163;49.316;6.092;2022-11-15T08:19:18;98831.09;;;10.82;86.19
23953;BME280;12163;49.316;6.092;2022-11-15T08:21:45;98825.09;;;10.85;86.68
23953;BME280;12163;49.316;6.092;2022-11-15T08:24:11;98827.69;;;10.90;86.69
23953;BME280;12163;49.316;6.092;2022-11-15T08:26:38;98832.47;;;10.93;85.85
23953;BME280;12163;49.316;6.092;2022-11-15T08:29:06;98829.66;;;10.98;86.14
23953;BME280;12163;49.316;6.092;2022-11-15T08:31:36;98832.25;;;11.03;85.83
23953;BME280;12163;49.316;6.092;2022-11-15T08:34:03;98837.84;;;11.06;85.85
23953;BME280;12163;49.316;6.092;2022-11-15T08:36:31;98821.81;;;11.10;86.17
23953;BME280;12163;49.316;6.092;2022-11-15T08:39:11;98816.59;;;11.13;85.61
23953;BME280;12163;49.316;6.092;2022-11-15T08:41:39;98802.19;;;11.18;85.87
23953;BME280;12163;49.316;6.092;2022-11-15T08:44:05;98815.06;;;11.21;85.13
23953;BME280;12163;49.316;6.092;2022-11-15T08:46:32;98810.16;;;11.23;85.62
23953;BME280;12163;49.316;6.092;2022-11-15T08:48:58;98800.19;;;11.23;85.73
23953;BME280;12163;49.316;6.092;2022-11-15T08:51:25;98794.16;;;11.26;85.54
23953;BME280;12163;49.316;6.092;2022-11-15T08:53:52;98792.09;;;11.32;85.20
23953;BME280;12163;49.316;6.092;2022-11-15T08:56:18;98788.50;;;11.36;85.43
23953;BME280;12163;49.316;6.092;2022-11-15T08:58:45;98788.53;;;11.45;86.03
23953;BME280;12163;49.316;6.092;2022-11-15T09:01:18;98790.00;;;11.51;86.10
23953;BME280;12163;49.316;6.092;2022-11-15T09:03:45;98779.59;;;11.58;85.43
23953;BME280;12163;49.316;6.092;2022-11-15T09:06:12;98779.97;;;11.65;85.46
23953;BME280;12163;49.316;6.092;2022-11-15T09:08:39;98777.13;;;11.70;85.45
23953;BME280;12163;49.316;6.092;2022-11-15T09:11:13;98769.97;;;11.73;85.43
23953;BME280;12163;49.316;6.092;2022-11-15T09:13:42;98762.88;;;11.77;84.61
23953;BME280;12163;49.316;6.092;2022-11-15T09:16:09;98763.66;;;11.78;85.05
23953;BME280;12163;49.316;6.092;2022-11-15T09:18:38;98771.44;;;11.79;85.00
23953;BME280;12163;49.316;6.092;2022-11-15T09:21:04;98780.03;;;11.81;84.73
23953;BME280;12163;49.316;6.092;2022-11-15T09:23:31;98773.69;;;11.86;85.55
23953;BME280;12163;49.316;6.092;2022-11-15T09:25:59;98768.66;;;11.93;85.41
23953;BME280;12163;49.316;6.092;2022-11-15T09:28:27;98769.28;;;11.98;85.05
23953;BME280;12163;49.316;6.092;2022-11-15T09:31:03;98765.19;;;12.09;86.11
23953;BME280;12163;49.316;6.092;2022-11-15T09:33:30;98756.66;;;12.24;85.70
23953;BME280;12163;49.316;6.092;2022-11-15T09:36:07;98752.38;;;12.32;84.91
23953;BME280;12163;49.316;6.092;2022-11-15T09:38:34;98750.63;;;12.36;84.64
23953;BME280;12163;49.316;6.092;2022-11-15T09:49:20;98727.91;;;12.45;83.82
23953;BME280;12163;49.316;6.092;2022-11-15T09:51:50;98729.97;;;12.48;84.04
23953;BME280;12163;49.316;6.092;2022-11-15T09:57:54;98723.94;;;12.68;84.18
23953;BME280;12163;49.316;6.092;2022-11-15T10:00:04;98718.50;;;12.85;84.12
23953;BME280;12163;49.316;6.092;2022-11-15T10:03:09;98724.09;;;13.06;83.46
23953;BME280;12163;49.316;6.092;2022-11-15T10:05:40;98718.19;;;13.12;82.69
23953;BME280;12163;49.316;6.092;2022-11-15T10:10:50;98718.78;;;13.26;82.34
23953;BME280;12163;49.316;6.092;2022-11-15T10:13:44;98718.75;;;13.43;81.91
23953;BME280;12163;49.316;6.092;2022-11-15T10:19:23;98707.56;;;13.53;80.72
23953;BME280;12163;49.316;6.092;2022-11-15T10:22:30;98699.25;;;13.58;80.75
23953;BME280;12163;49.316;6.092;2022-11-15T10:28:01;98704.06;;;13.52;80.57
23953;BME280;12163;49.316;6.092;2022-11-15T10:30:36;98707.72;;;13.48;80.37
23953;BME280;12163;49.316;6.092;2022-11-15T10:33:36;98699.63;;;13.40;80.27
23953;BME280;12163;49.316;6.092;2022-11-15T10:41:16;98679.88;;;13.39;81.10
23953;BME280;12163;49.316;6.092;2022-11-15T10:43:43;98679.22;;;13.42;80.77
23953;BME280;12163;49.316;6.092;2022-11-15T10:46:20;98668.84;;;13.44;80.72
23953;BME280;12163;49.316;6.092;2022-11-15T10:49:15;98662.31;;;13.45;80.26
23953;BME280;12163;49.316;6.092;2022-11-15T10:51:58;98661.66;;;13.48;80.34
23953;BME280;12163;49.316;6.092;2022-11-15T10:54:36;98654.16;;;13.53;80.21
23953;BME280;12163;49.316;6.092;2022-11-15T10:57:17;98639.63;;;13.58;79.95
23953;BME280;12163;49.316;6.092;2022-11-15T10:59:51;98624.31;;;13.62;80.09
23953;BME280;12163;49.316;6.092;2022-11-15T11:02:32;98624.56;;;13.69;79.69
23953;BME280;12163;49.316;6.092;2022-11-15T11:05:00;98622.13;;;13.76;79.11
23953;BME280;12163;49.316;6.092;2022-11-15T11:07:30;98607.75;;;13.84;79.68
23953;BME280;12163;49.316;6.092;2022-11-15T11:10:21;98607.69;;;13.92;79.73
23953;BME280;12163;49.316;6.092;2022-11-15T11:16:16;98597.66;;;14.13;79.03
23953;BME280;12163;49.316;6.092;2022-11-15T11:24:32;98574.22;;;14.29;77.89
23953;BME280;12163;49.316;6.092;2022-11-15T11:27:25;98578.22;;;14.32;77.97
23953;BME280;12163;49.316;6.092;2022-11-15T11:35:51;98549.94;;;14.33;77.75
23953;BME280;12163;49.316;6.092;2022-11-15T11:49:12;98528.44;;;14.60;76.79
23953;BME280;12163;49.316;6.092;2022-11-15T11:57:40;98504.59;;;14.78;77.30
23953;BME280;12163;49.316;6.092;2022-11-15T12:00:16;98498.50;;;14.81;76.61
23953;BME280;12163;49.316;6.092;2022-11-15T12:05:41;98493.75;;;15.02;76.15
23953;BME280;12163;49.316;6.092;2022-11-15T12:13:32;98480.91;;;15.34;74.96
23953;BME280;12163;49.316;6.092;2022-11-15T12:16:05;98468.75;;;15.44;74.60
23953;BME280;12163;49.316;6.092;2022-11-15T12:18:36;98465.88;;;15.52;74.28
23953;BME280;12163;49.316;6.092;2022-11-15T12:21:08;98460.69;;;15.59;73.95
23953;BME280;12163;49.316;6.092;2022-11-15T12:23:49;98466.31;;;15.66;73.94
23953;BME280;12163;49.316;6.092;2022-11-15T12:26:37;98453.38;;;15.75;73.29
23953;BME280;12163;49.316;6.092;2022-11-15T12:29:16;98442.72;;;15.82;72.94
23953;BME280;12163;49.316;6.092;2022-11-15T12:31:50;98440.44;;;15.84;73.00
23953;BME280;12163;49.316;6.092;2022-11-15T12:36:47;98441.13;;;15.81;72.36
23953;BME280;12163;49.316;6.092;2022-11-15T12:39:15;98434.88;;;15.81;73.00
23953;BME280;12163;49.316;6.092;2022-11-15T12:41:44;98430.94;;;15.78;72.37
23953;BME280;12163;49.316;6.092;2022-11-15T12:44:13;98414.25;;;15.80;72.69
23953;BME280;12163;49.316;6.092;2022-11-15T12:52:06;98398.63;;;16.04;72.25
23953;BME280;12163;49.316;6.092;2022-11-15T13:02:23;98377.31;;;16.06;71.25
23953;BME280;12163;49.316;6.092;2022-11-15T13:04:52;98374.84;;;16.01;71.60
23953;BME280;12163;49.316;6.092;2022-11-15T13:17:50;98355.34;;;15.99;71.99
23953;BME280;12163;49.316;6.092;2022-11-15T13:20:31;98345.78;;;16.05;72.18
23953;BME280;12163;49.316;6.092;2022-11-15T13:30:36;98327.28;;;16.26;71.05
23953;BME280;12163;49.316;6.092;2022-11-15T13:33:15;98320.25;;;16.25;70.80
23953;BME280;12163;49.316;6.092;2022-11-15T13:35:46;98314.81;;;16.25;71.08
23953;BME280;12163;49.316;6.092;2022-11-15T13:38:29;98311.66;;;16.23;71.22
23953;BME280;12163;49.316;6.092;2022-11-15T13:40:58;98307.00;;;16.24;70.69
23953;BME280;12163;49.316;6.092;2022-11-15T13:46:10;98296.72;;;16.17;71.69
23953;BME280;12163;49.316;6.092;2022-11-15T13:48:42;98288.09;;;16.15;71.75
23953;BME280;12163;49.316;6.092;2022-11-15T13:51:34;98289.94;;;16.11;71.93
23953;BME280;12163;49.316;6.092;2022-11-15T13:59:49;98271.63;;;16.08;71.78
23953;BME280;12163;49.316;6.092;2022-11-15T14:02:25;98266.88;;;16.05;71.97
23953;BME280;12163;49.316;6.092;2022-11-15T14:05:02;98262.47;;;16.01;72.74
23953;BME280;12163;49.316;6.092;2022-11-15T14:07:31;98261.28;;;15.98;72.66
23953;BME280;12163;49.316;6.092;2022-11-15T14:10:24;98260.63;;;15.89;72.60
23953;BME280;12163;49.316;6.092;2022-11-15T14:12:51;98252.75;;;15.84;72.41
23953;BME280;12163;49.316;6.092;2022-11-15T14:15:36;98256.88;;;15.78;72.68
23953;BME280;12163;49.316;6.092;2022-11-15T14:18:04;98246.66;;;15.75;72.47
23953;BME280;12163;49.316;6.092;2022-11-15T14:20:36;98244.22;;;15.70;72.95
23953;BME280;12163;49.316;6.092;2022-11-15T14:23:25;98237.00;;;15.62;72.68
23953;BME280;12163;49.316;6.092;2022-11-15T14:25:58;98230.00;;;15.61;72.70
23953;BME280;12163;49.316;6.092;2022-11-15T14:30:54;98232.88;;;15.53;72.80
23953;BME280;12163;49.316;6.092;2022-11-15T14:33:35;98233.56;;;15.50;72.95
23953;BME280;12163;49.316;6.092;2022-11-15T14:36:22;98238.22;;;15.49;72.82
23953;BME280;12163;49.316;6.092;2022-11-15T14:38:49;98238.22;;;15.49;73.03
23953;BME280;12163;49.316;6.092;2022-11-15T14:41:24;98235.06;;;15.47;73.52
23953;BME280;12163;49.316;6.092;2022-11-15T14:43:51;98226.44;;;15.45;73.47
23953;BME280;12163;49.316;6.092;2022-11-15T14:46:19;98228.72;;;15.43;73.48
23953;BME280;12163;49.316;6.092;2022-11-15T14:48:45;98241.88;;;15.41;73.63
23953;BME280;12163;49.316;6.092;2022-11-15T14:51:17;98227.41;;;15.37;73.98
23953;BME280;12163;49.316;6.092;2022-11-15T14:53:44;98225.03;;;15.36;74.32
23953;BME280;12163;49.316;6.092;2022-11-15T14:56:12;98230.84;;;15.34;74.55
23953;BME280;12163;49.316;6.092;2022-11-15T14:58:40;98227.56;;;15.29;75.10
23953;BME280;12163;49.316;6.092;2022-11-15T15:01:23;98227.00;;;15.23;75.40
23953;BME280;12163;49.316;6.092;2022-11-15T15:03:51;98227.25;;;15.18;75.44
23953;BME280;12163;49.316;6.092;2022-11-15T15:06:18;98222.50;;;15.16;76.21
23953;BME280;12163;49.316;6.092;2022-11-15T15:08:45;98223.66;;;15.15;76.58
23953;BME280;12163;49.316;6.092;2022-11-15T15:11:20;98227.84;;;15.12;76.86
23953;BME280;12163;49.316;6.092;2022-11-15T15:13:47;98220.38;;;15.09;76.90
23953;BME280;12163;49.316;6.092;2022-11-15T15:16:14;98217.56;;;15.06;77.11
23953;BME280;12163;49.316;6.092;2022-11-15T15:18:40;98219.81;;;15.04;77.30
23953;BME280;12163;49.316;6.092;2022-11-15T15:21:24;98216.22;;;15.00;77.60
23953;BME280;12163;49.316;6.092;2022-11-15T15:23:52;98205.81;;;15.02;77.57
23953;BME280;12163;49.316;6.092;2022-11-15T15:26:24;98201.41;;;14.97;77.72
23953;BME280;12163;49.316;6.092;2022-11-15T15:28:51;98207.53;;;14.94;78.07
23953;BME280;12163;49.316;6.092;2022-11-15T15:31:18;98200.06;;;14.91;78.42
23953;BME280;12163;49.316;6.092;2022-11-15T15:33:45;98199.19;;;14.87;78.78
23953;BME280;12163;49.316;6.092;2022-11-15T15:36:13;98193.63;;;14.84;79.10
23953;BME280;12163;49.316;6.092;2022-11-15T15:38:40;98196.97;;;14.77;79.36
23953;BME280;12163;49.316;6.092;2022-11-15T15:41:15;98191.44;;;14.74;79.81
23953;BME280;12163;49.316;6.092;2022-11-15T15:43:42;98202.28;;;14.74;79.76
23953;BME280;12163;49.316;6.092;2022-11-15T15:46:14;98193.25;;;14.70;79.92